Data for 10/22/2005

Time Sea-Level Adjusted Pressure Absolute Pressure Temperature Relative Humidity Dew Point   
(mb) (inHg) (mb) (inHg) (C) (F) (%) (C) (F)
00:05 1023 30.21 852 25.16 5.5 41.9 61 -1.5 29.3
00:10 1023 30.21 852 25.16 5.3 41.5 61 -1.7 28.9
00:15 1023 30.21 852 25.16 5 41 61 -1.9 28.6
00:20 1023 30.21 852 25.16 4.7 40.5 61 -2.1 28.3
00:25 1023 30.21 852 25.16 4.7 40.4 62 -2.1 28.3
00:30 1023 30.21 852 25.16 4.5 40.2 62 -2 28.4
00:35 1023 30.21 852 25.16 4.2 39.5 64 -2 28.4
00:40 1023 30.21 852 25.16 3.9 39 65 -2 28.3
00:45 1023 30.21 852 25.16 3.8 38.9 65 -2.2 28.1
00:50 1023 30.21 852 25.16 3.8 38.9 67 -1.8 28.7
00:55 1023 30.21 852 25.16 3.5 38.4 67 -1.9 28.5
01:00 1023 30.21 852 25.16 3.4 38.1 68 -1.9 28.7
01:05 1023 30.21 852 25.16 3.4 38.1 68 -2 28.5
01:10 1023 30.21 852 25.16 3.4 38.1 68 -1.9 28.5
01:15 1023 30.21 852 25.16 3.3 38 68 -2 28.5
01:20 1023 30.21 852 25.16 3.4 38.1 68 -1.9 28.5
01:25 1023 30.21 852 25.16 3.3 38 68 -2 28.5
01:30 1023 30.21 852 25.16 3.4 38.1 67 -2.1 28.2
01:35 1023 30.21 852 25.16 3.4 38 67 -2.2 28
01:40 1023 30.21 852 25.16 3.7 38.7 65 -2.3 27.9
01:45 1023 30.21 852 25.16 4.1 39.3 64 -2.1 28.2
01:50 1023 30.21 852 25.16 4.2 39.6 64 -2 28.5
01:55 1023 30.21 852 25.16 4.2 39.5 64 -2 28.3
02:00 1023 30.21 852 25.16 4.4 40 63 -2.1 28.3
02:05 1023 30.21 852 25.16 4.3 39.7 65 -1.7 28.9
02:10 1023 30.21 852 25.16 4 39.2 66 -1.8 28.8
02:15 1023 30.21 852 25.16 3.8 38.8 68 -1.6 29.1
02:20 1023 30.21 852 25.16 3.7 38.6 68 -1.7 29
02:25 1023 30.21 852 25.16 3.8 38.9 66 -1.8 28.7
02:30 1023 30.21 852 25.16 4 39.2 66 -1.8 28.8
02:35 1023 30.21 852 25.16 3.8 38.9 68 -1.6 29
02:40 1023 30.21 852 25.16 3.9 39 67 -1.6 29
02:45 1023 30.21 852 25.16 4 39.2 66 -1.7 29
02:50 1023 30.21 852 25.16 4 39.3 67 -1.5 29.2
02:55 1023 30.21 852 25.16 4.1 39.3 67 -1.6 29.1
03:00 1023 30.21 852 25.16 4.1 39.4 67 -1.5 29.2
03:05 1023 30.21 852 25.16 4 39.3 68 -1.4 29.5
03:10 1023 30.21 852 25.16 3.8 38.8 68 -1.5 29.3
03:15 1023 30.21 852 25.16 3.8 38.9 69 -1.4 29.4
03:20 1023 30.21 852 25.16 3.8 38.9 69 -1.4 29.5
03:25 1023 30.21 852 25.16 3.6 38.5 70 -1.4 29.5
03:30 1023 30.21 852 25.16 3.9 38.9 69 -1.4 29.5
03:35 1022 30.18 852 25.16 4 39.1 68 -1.3 29.6
03:40 1023 30.21 852 25.16 4.3 39.8 66 -1.4 29.5
03:45 1023 30.21 852 25.16 4.6 40.2 65 -1.4 29.5
03:50 1022 30.18 852 25.16 4.7 40.5 64 -1.6 29.2
03:55 1022 30.18 852 25.16 4.6 40.2 64 -1.7 28.9
04:00 1022 30.18 852 25.16 4.3 39.7 65 -1.8 28.7
04:05 1022 30.18 852 25.16 4.3 39.7 64 -1.9 28.6
04:10 1022 30.18 852 25.16 4 39.2 65 -1.9 28.6
04:15 1022 30.18 852 25.16 3.2 37.8 70 -1.8 28.8
04:20 1022 30.18 852 25.16 2.7 36.9 73 -1.7 28.9
04:25 1022 30.18 852 25.16 2.8 37.1 70 -2.1 28.3
04:30 1022 30.18 852 25.16 3.1 37.6 69 -2 28.4
04:35 1022 30.18 852 25.16 3.3 38 69 -1.9 28.5
04:40 1022 30.18 852 25.16 3.5 38.3 68 -1.9 28.6
04:45 1022 30.18 852 25.16 3.5 38.3 68 -1.9 28.5
04:50 1022 30.18 852 25.16 3.4 38.2 68 -2 28.4
04:55 1022 30.18 852 25.16 3.5 38.3 68 -1.9 28.5
05:00 1022 30.18 852 25.16 3.2 37.7 70 -1.7 28.9
05:05 1022 30.18 852 25.16 2.9 37.2 70 -2 28.4
05:10 1022 30.18 851 25.13 3.3 38 69 -1.8 28.7
05:15 1022 30.18 851 25.13 4 39.2 66 -1.7 29
05:20 1022 30.18 851 25.13 3.1 37.6 70 -1.8 28.7
05:25 1022 30.18 851 25.13 2.7 36.8 73 -1.6 29.1
05:30 1022 30.18 851 25.13 3.5 38.4 70 -1.4 29.5
05:35 1022 30.18 851 25.13 3.6 38.6 72 -0.9 30.4
05:40 1022 30.18 851 25.13 2.8 37.1 75 -1.2 29.9
05:45 1022 30.18 851 25.13 2.3 36.2 76 -1.5 29.3
05:50 1022 30.18 851 25.13 2.7 36.8 74 -1.4 29.5
05:55 1022 30.18 851 25.13 2.7 36.8 75 -1.2 29.8
06:00 1022 30.18 852 25.16 2.7 36.8 76 -1.2 29.9
06:05 1022 30.18 852 25.16 2.7 36.9 76 -1.1 30
06:10 1022 30.18 852 25.16 2.8 37 76 -1 30.2
06:15 1022 30.18 852 25.16 2.9 37.3 76 -0.9 30.4
06:20 1022 30.18 852 25.16 2.9 37.3 76 -0.9 30.3
06:25 1022 30.18 852 25.16 3 37.3 76 -0.9 30.4
06:30 1022 30.18 852 25.16 2.6 36.8 76 -1.1 30
06:35 1022 30.18 852 25.16 2.7 36.8 76 -1.1 29.9
06:40 1022 30.18 851 25.13 2.7 36.8 77 -0.9 30.4
06:45 1022 30.18 851 25.13 2.4 36.3 78 -1 30.2
06:50 1022 30.18 852 25.16 2.6 36.7 77 -1 30.1
06:55 1022 30.18 851 25.13 2.8 37 77 -0.9 30.3
07:00 1022 30.18 851 25.13 2.7 36.9 76 -1 30.2
07:05 1022 30.18 851 25.13 3 37.4 75 -0.9 30.3
07:10 1022 30.18 851 25.13 2.6 36.7 77 -0.9 30.4
07:15 1022 30.18 851 25.13 2.4 36.4 78 -1.1 30.1
07:20 1022 30.18 851 25.13 2.3 36.1 78 -1.1 30
07:25 1022 30.18 851 25.13 2.6 36.6 76 -1.2 29.8
07:30 1022 30.18 851 25.13 3 37.4 75 -1 30.1
07:35 1022 30.18 851 25.13 3.1 37.6 75 -1 30.3
07:40 1022 30.18 851 25.13 3.1 37.5 74 -1.1 30
07:45 1022 30.18 852 25.16 3.3 38 73 -1 30.1
07:50 1022 30.18 852 25.16 3.2 37.7 74 -1 30.2
07:55 1022 30.18 852 25.16 3.1 37.7 74 -1.1 30.1
08:00 1022 30.18 852 25.16 3.2 37.8 74 -1 30.2
08:05 1022 30.18 852 25.16 3.2 37.7 74 -1.1 30.1
08:10 1023 30.21 852 25.16 2.8 37.1 75 -1.1 30
08:15 1022 30.18 852 25.16 2.8 37 74 -1.3 29.6
08:20 1023 30.21 852 25.16 2.9 37.3 73 -1.4 29.5
08:25 1023 30.21 852 25.16 3.1 37.5 72 -1.4 29.5
08:30 1023 30.21 852 25.16 3.4 38.2 71 -1.4 29.5
08:35 1023 30.21 852 25.16 4 39.1 69 -1.2 29.8
08:40 1023 30.21 852 25.16 4 39.2 69 -1.1 30
08:45 1023 30.21 852 25.16 4.2 39.6 68 -1.1 30
08:50 1023 30.21 852 25.16 4.6 40.2 66 -1.1 29.9
08:55 1023 30.21 852 25.16 4.5 40 67 -1 30.2
09:00 1023 30.21 852 25.16 4.6 40.3 66 -1.1 30
09:05 1023 30.21 852 25.16 4.8 40.7 66 -1 30.1
09:10 1023 30.21 852 25.16 5.2 41.3 65 -0.9 30.3
09:15 1023 30.21 852 25.16 5.3 41.5 64 -1 30.3
09:20 1023 30.21 852 25.16 5.6 42.1 63 -0.7 30.7
09:25 1023 30.21 852 25.16 5.8 42.4 62 -0.8 30.5
09:30 1023 30.21 852 25.16 6 42.9 62 -0.7 30.8
09:35 1023 30.21 852 25.16 6.4 43.5 60 -0.8 30.5
09:40 1023 30.21 852 25.16 6.6 43.9 60 -0.6 30.8
09:45 1023 30.21 852 25.16 7.3 45.2 57 -0.5 31
09:50 1023 30.21 852 25.16 8 46.4 55 -0.6 31
09:55 1023 30.21 852 25.16 8.3 47 54 -0.4 31.3
10:00 1023 30.21 852 25.16 9 48.2 51 -0.5 31.2
10:05 1023 30.21 852 25.16 9.3 48.8 51 -0.3 31.5
10:10 1023 30.21 852 25.16 9.7 49.5 50 -0.2 31.7
10:15 1023 30.21 852 25.16 10.2 50.4 49 -0 31.9
10:20 1023 30.21 852 25.16 9.7 49.5 49 -0.5 31.2
10:25 1022 30.18 852 25.16 10.3 50.6 47 -0.4 31.3
10:30 1022 30.18 852 25.16 10.6 51.1 46 -0.5 31.1
10:35 1022 30.18 852 25.16 10.1 50.2 46 -0.9 30.4
10:40 1022 30.18 852 25.16 10.3 50.6 46 -0.7 30.8
10:45 1022 30.18 852 25.16 10.7 51.3 44 -0.8 30.5
10:50 1022 30.18 852 25.16 10.8 51.4 45 -0.7 30.7
10:55 1022 30.18 852 25.16 10.9 51.7 45 -0.4 31.3
11:00 1022 30.18 851 25.13 11.2 52.1 43 -0.9 30.3
11:05 1022 30.18 851 25.13 11.6 52.9 42 -0.7 30.7
11:10 1022 30.18 851 25.13 11.9 53.5 41 -0.7 30.7
11:15 1022 30.18 851 25.13 11.2 52.2 44 -0.4 31.2
11:20 1022 30.18 851 25.13 11.3 52.4 43 -0.6 30.9
11:25 1022 30.18 851 25.13 11.9 53.4 41 -0.8 30.6
11:30 1022 30.18 851 25.13 12.2 54 41 -0.6 30.8
11:35 1022 30.18 851 25.13 12.6 54.7 40 -0.5 31
11:40 1022 30.18 851 25.13 12.5 54.6 42 0.1 32.3
11:45 1022 30.18 851 25.13 12.4 54.4 41 -0.4 31.2
11:50 1022 30.18 851 25.13 11.9 53.3 41 -0.8 30.6
11:55 1022 30.18 851 25.13 12.1 53.8 42 -0.4 31.3
12:00 1022 30.18 851 25.13 12.1 53.8 42 -0.3 31.5
12:05 1022 30.18 851 25.13 12.1 53.7 43 -0 31.9
12:10 1022 30.18 851 25.13 12.8 55 42 0.1 32.3
12:15 1022 30.18 851 25.13 13.2 55.8 42 0.7 33.2
12:20 1022 30.18 851 25.13 13.4 56.1 40 0.2 32.3
12:25 1022 30.18 851 25.13 13.9 57.1 40 0.7 33.3
12:30 1021 30.15 851 25.13 13.9 57 41 1.1 33.9
12:35 1021 30.15 851 25.13 13.9 57.1 40 0.7 33.2
12:40 1021 30.15 851 25.13 13.3 55.9 43 1.2 34.1
12:45 1021 30.15 851 25.13 13.3 55.9 41 0.4 32.7
12:50 1021 30.15 851 25.13 13.9 57 40 0.7 33.3
12:55 1021 30.15 850 25.1 13.9 57 40 0.7 33.2
13:00 1021 30.15 850 25.1 13.2 55.8 43 0.9 33.6
13:05 1021 30.15 850 25.1 13.2 55.7 42 0.7 33.2
13:10 1021 30.15 850 25.1 14 57.2 40 0.5 33
13:15 1021 30.15 850 25.1 14 57.2 39 0.2 32.4
13:20 1021 30.15 850 25.1 13.3 55.9 41 0.4 32.8
13:25 1021 30.15 850 25.1 14.1 57.3 40 0.8 33.4
13:30 1021 30.15 850 25.1 14.8 58.7 37 0.4 32.8
13:35 1021 30.15 850 25.1 15.1 59.2 35 -0.2 31.6
13:40 1021 30.15 850 25.1 15.5 59.8 35 0.3 32.6
13:45 1021 30.15 850 25.1 15.3 59.6 37 0.8 33.4
13:50 1021 30.15 850 25.1 15.3 59.6 38 1.2 34.2
13:55 1021 30.15 850 25.1 15.1 59.1 35 -0.2 31.6
14:00 1021 30.15 850 25.1 15.3 59.5 34 -0.4 31.3
14:05 1021 30.15 850 25.1 14.8 58.7 35 -0.6 31
14:10 1021 30.15 850 25.1 15.7 60.2 35 0.2 32.3
14:15 1021 30.15 850 25.1 15.2 59.3 37 0.5 32.9
14:20 1020 30.12 850 25.1 15.2 59.4 34 -0.4 31.3
14:25 1020 30.12 850 25.1 14.8 58.7 36 -0.1 31.8
14:30 1020 30.12 850 25.1 15.7 60.3 33 -0.3 31.4
14:35 1020 30.12 849 25.07 16.2 61.2 33 -0.1 31.9
14:40 1020 30.12 849 25.07 15.8 60.4 33 -0.3 31.4
14:45 1020 30.12 849 25.07 16.3 61.4 32 -0.3 31.4
14:50 1020 30.12 849 25.07 16.6 61.9 32 -0.2 31.7
14:55 1020 30.12 849 25.07 15.9 60.6 33 -0.3 31.5
15:00 1020 30.12 849 25.07 16.1 61 32 -0.5 31
15:05 1020 30.12 849 25.07 16.8 62.2 32 0 32.1
15:10 1020 30.12 849 25.07 16 60.7 34 0.3 32.5
15:15 1020 30.12 849 25.07 16 60.8 32 -0.5 31
15:20 1020 30.12 849 25.07 16.1 61 33 0.1 32.2
15:25 1020 30.12 849 25.07 16 60.8 32 -0.6 30.9
15:30 1020 30.12 849 25.07 15.9 60.6 33 -0.1 31.8
15:35 1020 30.12 849 25.07 16.1 61 33 -0 31.9
15:40 1020 30.12 849 25.07 17.1 62.9 30 -0.3 31.5
15:45 1020 30.12 849 25.07 17.3 63.2 31 -0.1 31.9
15:50 1020 30.12 849 25.07 17.6 63.6 30 0.1 32.1
15:55 1020 30.12 849 25.07 17.4 63.2 31 0 32
16:00 1020 30.12 849 25.07 16.9 62.5 32 0.2 32.4
16:05 1020 30.12 849 25.07 17.5 63.6 30 -0 31.9
16:10 1020 30.12 849 25.07 17.8 64 30 -0 31.9
16:15 1020 30.12 849 25.07 18 64.4 29 -0.1 31.9
16:20 1020 30.12 849 25.07 18 64.4 29 -0 32
16:25 1020 30.12 849 25.07 17.8 64.1 29 -0.3 31.5
16:30 1020 30.12 849 25.07 17.2 63 31 0.1 32.2
16:35 1020 30.12 849 25.07 17.4 63.3 30 -0.2 31.7
16:40 1020 30.12 849 25.07 17.7 63.8 30 -0.1 31.9
16:45 1020 30.12 849 25.07 16.7 62 32 -0.1 31.9
16:50 1020 30.12 849 25.07 16.3 61.4 33 0.2 32.3
16:55 1020 30.12 849 25.07 16.3 61.3 32 -0.1 31.8
17:00 1020 30.12 849 25.07 16.6 61.9 32 -0.2 31.6
17:05 1020 30.12 849 25.07 16.7 62 32 0 32
17:10 1020 30.12 849 25.07 17.1 62.7 31 0.1 32.1
17:15 1020 30.12 849 25.07 17.2 63 31 0.2 32.4
17:20 1020 30.12 849 25.07 17.5 63.5 31 0.2 32.4
17:25 1020 30.12 849 25.07 17.1 62.8 31 0.1 32.2
17:30 1020 30.12 849 25.07 17.2 62.9 31 0.1 32.2
17:35 1020 30.12 849 25.07 17 62.6 32 0.1 32.2
17:40 1020 30.12 849 25.07 16.9 62.3 32 0.1 32.2
17:45 1020 30.12 849 25.07 16.8 62.2 32 0.2 32.3
17:50 1020 30.12 849 25.07 16.7 62.1 33 0.3 32.6
17:55 1020 30.12 849 25.07 16.7 62.1 32 0.2 32.4
18:00 1020 30.12 849 25.07 16.6 62 33 0.3 32.6
18:05 1020 30.12 849 25.07 16.5 61.7 33 0.3 32.6
18:10 1020 30.12 849 25.07 16.3 61.3 34 0.4 32.7
18:15 1020 30.12 849 25.07 16 60.8 35 0.5 32.9
18:20 1020 30.12 849 25.07 15.6 60.1 36 0.5 32.9
18:25 1020 30.12 849 25.07 15.1 59.1 38 0.8 33.5
18:30 1020 30.12 849 25.07 14.7 58.5 38 0.7 33.3
18:35 1020 30.12 849 25.07 14.6 58.2 39 0.8 33.4
18:40 1020 30.12 849 25.07 14.2 57.5 42 1.5 34.8
18:45 1020 30.12 849 25.07 12.9 55.2 50 2.9 37.3
18:50 1020 30.12 849 25.07 11.8 53.2 54 2.7 36.9
18:55 1020 30.12 849 25.07 11.4 52.5 55 2.7 36.9
19:00 1020 30.12 849 25.07 11 51.7 57 2.7 36.9
19:05 1020 30.12 849 25.07 10.6 51 57 2.5 36.5
19:10 1020 30.12 849 25.07 10.6 51 57 2.6 36.6
19:15 1020 30.12 849 25.07 9.9 49.8 60 2.5 36.5
19:20 1020 30.12 849 25.07 9.7 49.5 58 2 35.5
19:25 1020 30.12 849 25.07 9.8 49.7 58 2.1 35.7
19:30 1020 30.12 849 25.07 9.6 49.2 60 2.1 35.8
19:35 1020 30.12 849 25.07 9.3 48.7 61 2.3 36.1
19:40 1020 30.12 849 25.07 9.2 48.5 61 2.2 35.9
19:45 1020 30.12 849 25.07 9 48.2 62 2.2 36
19:50 1020 30.12 849 25.07 8.9 47.9 63 2.3 36.1
19:55 1020 30.12 849 25.07 8.7 47.6 64 2.2 36
20:00 1020 30.12 849 25.07 8.6 47.5 64 2.3 36.1
20:05 1020 30.12 849 25.07 8.5 47.2 65 2.3 36.1
20:10 1020 30.12 849 25.07 8.4 47.1 65 2.2 36
20:15 1020 30.12 849 25.07 8.3 46.9 66 2.3 36.1
20:20 1020 30.12 849 25.07 8.2 46.7 66 2.2 35.9
20:25 1020 30.12 849 25.07 8.1 46.6 66 2.2 35.9
20:30 1020 30.12 849 25.07 8.1 46.5 66 2.1 35.8
20:35 1020 30.12 849 25.07 7.9 46.3 66 2.1 35.7
20:40 1020 30.12 849 25.07 7.9 46.2 66 2 35.6
20:45 1020 30.12 849 25.07 7.9 46.1 67 2.1 35.8
20:50 1020 30.12 849 25.07 7.7 45.8 67 2 35.6
20:55 1020 30.12 849 25.07 7.5 45.5 68 2 35.6
21:00 1020 30.12 849 25.07 7.3 45.2 69 2 35.7
21:05 1020 30.12 849 25.07 7.1 44.7 70 2 35.5
21:10 1020 30.12 849 25.07 6.9 44.4 71 2 35.6
21:15 1020 30.12 849 25.07 6.7 44 71 1.9 35.4
21:20 1020 30.12 849 25.07 6.6 43.9 72 1.8 35.3
21:25 1020 30.12 849 25.07 6.5 43.7 72 1.8 35.3
21:30 1020 30.12 849 25.07 6.4 43.4 73 1.8 35.2
21:35 1020 30.12 849 25.07 6.3 43.4 72 1.7 35.1
21:40 1020 30.12 849 25.07 6.3 43.3 73 1.8 35.2
21:45 1020 30.12 849 25.07 6.2 43.1 73 1.7 35
21:50 1020 30.12 849 25.07 6.2 43.1 73 1.7 35.1
21:55 1020 30.12 849 25.07 6 42.8 73 1.6 35
22:00 1020 30.12 849 25.07 6 42.8 73 1.6 34.9
22:05 1020 30.12 849 25.07 5.9 42.7 73 1.6 34.8
22:10 1020 30.12 849 25.07 5.9 42.6 74 1.6 34.8
22:15 1020 30.12 849 25.07 5.8 42.4 74 1.5 34.7
22:20 1020 30.12 849 25.07 5.7 42.3 74 1.5 34.6
22:25 1020 30.12 849 25.07 5.7 42.3 74 1.5 34.7
22:30 1020 30.12 849 25.07 5.7 42.3 74 1.5 34.8
22:35 1020 30.12 849 25.07 5.7 42.2 74 1.5 34.7
22:40 1020 30.12 849 25.07 5.7 42.2 74 1.5 34.7
22:45 1020 30.12 849 25.07 5.6 42.1 74 1.4 34.5
22:50 1020 30.12 849 25.07 5.6 42.1 74 1.4 34.6
22:55 1020 30.12 849 25.07 5.5 41.9 75 1.4 34.5
23:00 1020 30.12 849 25.07 5.4 41.7 75 1.3 34.3
23:05 1020 30.12 849 25.07 5.3 41.6 75 1.3 34.4
23:10 1020 30.12 849 25.07 5.3 41.6 76 1.4 34.5
23:15 1020 30.12 849 25.07 5.2 41.4 76 1.3 34.3
23:20 1020 30.12 849 25.07 5.2 41.4 75 1.3 34.3
23:25 1020 30.12 849 25.07 5.2 41.4 76 1.3 34.3
23:30 1020 30.12 849 25.07 5.2 41.3 76 1.3 34.3
23:35 1020 30.12 849 25.07 5.1 41.3 76 1.3 34.3
23:40 1020 30.12 849 25.07 5.1 41.2 76 1.2 34.2
23:45 1020 30.12 849 25.07 5.1 41.2 76 1.2 34.2
23:50 1020 30.12 849 25.07 5 41.1 77 1.3 34.4
23:55 1020 30.12 849 25.07 5 41 77 1.3 34.3
24:00 1020 30.12 849 25.07 4.9 40.9 77 1.3 34.3